Mc Grath, Alaska
Current Conditions -  °F | °C
As of 1:53 PM on Wednesday 26 Nov 2014 (Local Time) from PAMC Reporting Station
Scattered Clouds Scattered Clouds  
Wind Chill: 19°   Ceiling: Unl
Heat Index: 19°   Visibility: 10mi
Dew Point: 13°   Wind: 0mph
Humidity: 77%   Direction: NA
Pressure: 30.41"   Gusts: NA
Location:  63.1005°N, 155.153°W
Report Text: PAMC 262253Z 00000KT 10SM FEW012 SCT030 M07/M11 A3041 RMK AO2 SLP307 T10721106
Loading
Personal Weather Stations






























Interactive Weather Map New forecast layout! Learn more

10-Day Weather Forecast

Advertisements
Track Severe Weather on mobile